createdAt,value
2023-04-25T00:00:27.883Z,12.80
2023-04-25T00:03:16.233Z,12.92
2023-04-25T00:05:45.280Z,13.06
2023-04-25T00:08:13.491Z,13.22
2023-04-25T00:10:41.665Z,13.25
2023-04-25T00:13:10.556Z,12.77
2023-04-25T00:15:39.345Z,12.14
2023-04-25T00:18:07.672Z,11.64
2023-04-25T00:20:37.037Z,11.21
2023-04-25T00:23:06.317Z,10.98
2023-04-25T00:25:34.487Z,11.39
2023-04-25T00:28:02.806Z,11.87
2023-04-25T00:30:30.933Z,12.25
2023-04-25T00:32:59.107Z,12.54
2023-04-25T00:35:27.584Z,12.80
2023-04-25T00:37:56.370Z,13.02
2023-04-25T00:40:24.752Z,13.28
2023-04-25T00:42:54.149Z,13.31
2023-04-25T00:45:22.320Z,12.71
2023-04-25T00:47:50.822Z,12.04
2023-04-25T00:50:19.087Z,11.52
2023-04-25T00:52:47.349Z,11.10
2023-04-25T00:55:17.002Z,10.88
2023-04-25T00:57:45.329Z,11.35
2023-04-25T01:00:15.658Z,11.89
2023-04-25T01:02:46.073Z,12.30
2023-04-25T01:05:14.661Z,12.62
2023-04-25T01:07:42.938Z,12.85
2023-04-25T01:10:11.316Z,13.07
2023-04-25T01:12:39.589Z,13.13
2023-04-25T01:15:08.190Z,12.53
2023-04-25T01:17:36.936Z,11.83
2023-04-25T01:20:06.522Z,11.27
2023-04-25T01:22:35.142Z,10.83
2023-04-25T01:25:03.844Z,10.63
2023-04-25T01:27:32.721Z,11.13
2023-04-25T01:30:01.325Z,11.68
2023-04-25T01:32:30.458Z,12.10
2023-04-25T01:34:58.766Z,12.39
2023-04-25T01:37:28.170Z,12.66
2023-04-25T01:39:56.652Z,12.90
2023-04-25T01:42:24.822Z,12.98
2023-04-25T01:44:53.200Z,12.46
2023-04-25T01:47:21.394Z,11.88
2023-04-25T01:49:49.544Z,11.40
2023-04-25T01:52:17.728Z,11.01
2023-04-25T01:54:46.400Z,10.83
2023-04-25T01:57:15.805Z,11.29
2023-04-25T01:59:45.511Z,11.83
2023-04-25T02:02:36.993Z,12.27
2023-04-25T02:05:07.149Z,12.59
2023-04-25T02:07:38.905Z,12.82
2023-04-25T02:10:07.593Z,12.83
2023-04-25T02:12:40.475Z,12.26
2023-04-25T02:15:24.002Z,11.63
2023-04-25T02:17:56.519Z,11.16
2023-04-25T02:20:26.189Z,10.77
2023-04-25T02:22:54.464Z,10.46
2023-04-25T02:25:23.349Z,10.30
2023-04-25T02:27:52.574Z,10.79
2023-04-25T02:30:20.723Z,11.31
2023-04-25T02:32:49.046Z,11.66
2023-04-25T02:35:17.368Z,11.95
2023-04-25T02:37:45.751Z,12.18
2023-04-25T02:40:15.880Z,12.35
2023-04-25T02:42:44.159Z,12.48
2023-04-25T02:45:12.927Z,12.64
2023-04-25T02:47:41.142Z,12.68
2023-04-25T02:50:09.785Z,12.14
2023-04-25T02:52:38.280Z,11.46
2023-04-25T02:55:14.637Z,10.89
2023-04-25T02:57:43.108Z,10.47
2023-04-25T03:00:15.576Z,10.25
2023-04-25T03:02:43.750Z,10.61
2023-04-25T03:05:12.236Z,11.02
2023-04-25T03:07:41.337Z,11.42
2023-04-25T03:10:11.950Z,11.72
2023-04-25T03:12:40.431Z,11.91
2023-04-25T03:15:09.117Z,12.06
2023-04-25T03:17:38.134Z,12.23
2023-04-25T03:20:09.511Z,12.40
2023-04-25T03:22:38.668Z,12.41
2023-04-25T03:25:08.029Z,11.79
2023-04-25T03:27:36.741Z,11.13
2023-04-25T03:30:06.040Z,10.66
2023-04-25T03:32:35.201Z,10.23
2023-04-25T03:35:03.414Z,9.98
2023-04-25T03:37:33.216Z,10.39
2023-04-25T03:40:01.386Z,10.82
2023-04-25T03:42:42.923Z,11.18
2023-04-25T03:45:12.787Z,11.44
2023-04-25T03:47:40.914Z,11.66
2023-04-25T03:50:10.616Z,11.84
2023-04-25T03:52:38.868Z,12.01
2023-04-25T03:55:07.833Z,12.10
2023-04-25T03:57:35.999Z,12.21
2023-04-25T04:00:05.477Z,12.16
2023-04-25T04:02:43.965Z,11.56
2023-04-25T04:05:14.091Z,10.91
2023-04-25T04:07:49.175Z,10.36
2023-04-25T04:10:18.879Z,10.07
2023-04-25T04:12:47.262Z,10.37
2023-04-25T04:15:15.450Z,10.79
2023-04-25T04:17:46.688Z,10.93
2023-04-25T04:20:14.862Z,10.80
2023-04-25T04:22:43.535Z,10.67
2023-04-25T04:25:13.952Z,10.59
2023-04-25T04:28:07.224Z,10.45
2023-04-25T04:30:56.718Z,10.42
2023-04-25T04:33:24.858Z,10.42
2023-04-25T04:35:58.770Z,10.39
2023-04-25T04:38:27.494Z,10.37
2023-04-25T04:40:59.109Z,10.36
2023-04-25T04:43:35.370Z,10.39
2023-04-25T04:46:07.771Z,10.39
2023-04-25T04:49:02.347Z,10.40
2023-04-25T04:52:01.135Z,10.43
2023-04-25T04:55:06.662Z,10.43
2023-04-25T04:57:57.775Z,10.47
2023-04-25T05:00:37.074Z,10.52
2023-04-25T05:03:33.849Z,10.56
2023-04-25T05:06:20.761Z,10.60
2023-04-25T05:09:16.270Z,10.60
2023-04-25T05:12:08.342Z,10.65
2023-04-25T05:15:09.969Z,10.71
2023-04-25T05:17:56.997Z,10.74
2023-04-25T05:20:25.353Z,10.77
2023-04-25T05:23:12.474Z,10.76
2023-04-25T05:25:54.468Z,10.77
2023-04-25T05:28:33.196Z,10.82
2023-04-25T05:31:13.961Z,10.86
2023-04-25T05:33:55.868Z,10.88
2023-04-25T05:36:27.431Z,10.93
2023-04-25T05:38:56.190Z,10.95
2023-04-25T05:41:53.845Z,10.93
2023-04-25T05:44:51.205Z,10.92
2023-04-25T05:47:39.656Z,10.91
2023-04-25T05:50:13.481Z,10.91
2023-04-25T05:52:49.715Z,10.91
2023-04-25T05:55:32.118Z,10.94
2023-04-25T05:58:02.235Z,10.96
2023-04-25T06:00:30.631Z,10.99
2023-04-25T06:02:59.356Z,11.02
2023-04-25T06:05:27.755Z,11.07
2023-04-25T06:07:56.162Z,11.12
2023-04-25T06:10:24.323Z,11.18
2023-04-25T06:12:52.393Z,11.27
2023-04-25T06:17:52.054Z,11.56
2023-04-25T06:20:24.391Z,11.69
2023-04-25T06:22:53.825Z,11.85
2023-04-25T06:25:25.348Z,11.96
2023-04-25T06:27:53.512Z,12.07
2023-04-25T06:30:24.858Z,12.22
2023-04-25T06:32:54.464Z,12.35
2023-04-25T06:35:23.367Z,12.38
2023-04-25T06:37:52.245Z,12.02
2023-04-25T06:40:23.077Z,11.65
2023-04-25T06:42:51.558Z,11.38
2023-04-25T06:45:39.083Z,11.15
2023-04-25T06:48:10.547Z,10.97
2023-04-25T06:50:39.011Z,10.77
2023-04-25T06:53:07.187Z,10.58
2023-04-25T06:55:36.080Z,10.39
2023-04-25T06:58:22.780Z,10.43
2023-04-25T07:01:11.395Z,11.21
2023-04-25T07:03:39.921Z,11.86
2023-04-25T07:06:12.799Z,12.38
2023-04-25T07:08:41.378Z,12.80
2023-04-25T07:11:09.680Z,13.03
2023-04-25T07:13:38.556Z,12.68
2023-04-25T07:16:07.382Z,12.26
2023-04-25T07:18:36.226Z,11.92
2023-04-25T07:21:05.134Z,11.71
2023-04-25T07:23:34.320Z,11.61
2023-04-25T07:26:04.219Z,11.54
2023-04-25T07:28:32.698Z,11.51
2023-04-25T07:31:00.876Z,11.47
2023-04-25T07:33:29.044Z,11.45
2023-04-25T07:35:57.314Z,11.46
2023-04-25T07:38:25.593Z,11.42
2023-04-25T07:40:53.777Z,11.42
2023-04-25T07:43:23.782Z,11.39
2023-04-25T07:45:58.928Z,11.36
2023-04-25T07:48:28.827Z,11.34
2023-04-25T07:50:58.228Z,11.34
2023-04-25T07:53:25.174Z,11.35
2023-04-25T07:55:56.723Z,11.43
2023-04-25T07:58:24.904Z,11.48
2023-04-25T08:00:56.866Z,11.51
2023-04-25T08:03:34.023Z,11.57
2023-04-25T08:06:05.686Z,11.63
2023-04-25T08:08:38.167Z,11.66
2023-04-25T08:11:08.285Z,11.75
2023-04-25T08:13:36.485Z,11.88
2023-04-25T08:16:05.677Z,11.90
2023-04-25T08:18:34.338Z,11.84
2023-04-25T08:21:04.352Z,11.79
2023-04-25T08:23:32.951Z,11.73
2023-04-25T08:26:06.229Z,11.72
2023-04-25T08:28:36.556Z,11.73
2023-04-25T08:31:05.573Z,11.74
2023-04-25T08:33:41.190Z,11.75
2023-04-25T08:39:01.399Z,11.75
2023-04-25T08:41:30.470Z,11.74
2023-04-25T08:44:01.440Z,11.71
2023-04-25T08:46:30.053Z,11.78
2023-04-25T08:49:20.190Z,12.01
2023-04-25T08:51:48.667Z,12.25
2023-04-25T08:54:30.765Z,12.38
2023-04-25T08:57:05.560Z,12.47
2023-04-25T08:59:34.785Z,12.42
2023-04-25T09:02:04.731Z,12.41
2023-04-25T09:04:33.490Z,12.46
2023-04-25T09:07:01.787Z,12.57
2023-04-25T09:09:30.760Z,12.88
2023-04-25T09:12:00.678Z,13.26
2023-04-25T09:14:29.867Z,13.58
2023-04-25T09:17:21.278Z,13.83
2023-04-25T09:19:52.855Z,14.05
2023-04-25T09:22:27.971Z,14.08
2023-04-25T09:24:56.859Z,14.08
2023-04-25T09:27:28.322Z,13.99
2023-04-25T09:30:17.928Z,13.86
2023-04-25T09:33:11.463Z,13.79
2023-04-25T09:35:45.152Z,13.84
2023-04-25T09:38:19.794Z,14.02
2023-04-25T09:41:04.330Z,14.14
2023-04-25T09:43:48.173Z,14.29
2023-04-25T09:46:18.601Z,14.37
2023-04-25T09:48:51.785Z,14.29
2023-04-25T09:51:27.434Z,14.22
2023-04-25T09:53:56.464Z,14.10
2023-04-25T09:56:36.790Z,13.95
2023-04-25T09:59:07.810Z,13.94
2023-04-25T10:01:40.935Z,14.01
2023-04-25T10:04:13.076Z,14.07
2023-04-25T10:07:14.644Z,14.26
2023-04-25T10:09:49.057Z,14.43
2023-04-25T10:12:18.154Z,14.48
2023-04-25T10:14:47.237Z,14.46
2023-04-25T10:17:15.635Z,14.36
2023-04-25T10:19:44.194Z,14.17
2023-04-25T10:22:15.048Z,14.03
2023-04-25T10:24:43.198Z,14.04
2023-04-25T10:27:12.304Z,14.13
2023-04-25T10:29:44.438Z,14.29
2023-04-25T10:32:12.642Z,14.33
2023-04-25T10:34:48.202Z,14.34
2023-04-25T10:37:16.462Z,14.23
2023-04-25T10:39:44.979Z,14.02
2023-04-25T10:42:13.217Z,13.78
2023-04-25T10:44:41.379Z,13.54
2023-04-25T10:47:11.065Z,13.38
2023-04-25T10:49:43.791Z,13.37
2023-04-25T10:52:16.344Z,13.49
2023-04-25T10:54:48.299Z,13.67
2023-04-25T10:57:38.199Z,13.91
2023-04-25T11:00:09.743Z,14.21
2023-04-25T11:02:39.489Z,14.44
2023-04-25T11:05:08.941Z,14.61
2023-04-25T11:08:03.896Z,14.64
2023-04-25T11:10:38.575Z,14.70
2023-04-25T11:13:06.772Z,14.74
2023-04-25T11:15:35.025Z,14.73
2023-04-25T11:18:04.365Z,14.73
2023-04-25T11:20:32.596Z,14.84
2023-04-25T11:23:01.396Z,14.95
2023-04-25T11:25:30.855Z,15.15
2023-04-25T11:28:01.078Z,15.36
2023-04-25T11:30:31.856Z,15.39
2023-04-25T11:33:00.402Z,15.18
2023-04-25T11:35:28.803Z,14.91
2023-04-25T11:37:56.975Z,14.67
2023-04-25T11:40:25.171Z,14.52
2023-04-25T11:42:54.900Z,14.30
2023-04-25T11:45:24.147Z,14.06
2023-04-25T11:47:52.904Z,13.87
2023-04-25T11:50:21.107Z,13.98
2023-04-25T11:52:49.789Z,14.43
2023-04-25T11:55:20.323Z,14.77
2023-04-25T11:57:50.737Z,14.92
2023-04-25T12:00:21.481Z,14.92
2023-04-25T12:02:55.060Z,14.90
2023-04-25T12:05:32.108Z,14.88
2023-04-25T12:08:12.137Z,14.76
2023-04-25T12:10:41.915Z,14.57
2023-04-25T12:13:24.250Z,14.35
2023-04-25T12:15:53.122Z,14.24
2023-04-25T12:18:24.153Z,14.24
2023-04-25T12:20:54.163Z,14.28
2023-04-25T12:23:29.430Z,14.67
2023-04-25T12:25:58.965Z,15.57
2023-04-25T12:28:31.889Z,16.56
2023-04-25T12:31:05.523Z,16.97
2023-04-25T12:33:35.404Z,16.92
2023-04-25T12:36:09.861Z,16.80
2023-04-25T12:38:40.000Z,16.76
2023-04-25T12:41:08.840Z,16.84
2023-04-25T12:43:36.999Z,16.83
2023-04-25T12:46:05.479Z,16.66
2023-04-25T12:48:34.064Z,16.49
2023-04-25T12:51:02.228Z,16.26
2023-04-25T12:53:30.507Z,16.07
2023-04-25T12:55:58.715Z,15.95
2023-04-25T12:58:26.952Z,15.88
2023-04-25T13:00:55.389Z,15.76
2023-04-25T13:03:23.803Z,15.60
2023-04-25T13:05:53.901Z,15.34
2023-04-25T13:08:22.099Z,15.10
2023-04-25T13:10:50.168Z,14.87
2023-04-25T13:13:18.362Z,14.58
2023-04-25T13:15:46.512Z,14.32
2023-04-25T13:18:16.944Z,14.11
2023-04-25T13:20:45.211Z,13.97
2023-04-25T13:23:13.591Z,13.91
2023-04-25T13:25:41.774Z,13.89
2023-04-25T13:28:10.034Z,13.81
2023-04-25T13:30:38.226Z,13.69
2023-04-25T13:33:07.819Z,13.61
2023-04-25T13:35:37.237Z,13.58
2023-04-25T13:38:06.007Z,13.51
2023-04-25T13:40:34.483Z,13.42
2023-04-25T13:43:03.058Z,13.33
2023-04-25T13:45:32.897Z,13.27
2023-04-25T13:48:02.038Z,13.27
2023-04-25T13:50:30.243Z,13.30
2023-04-25T13:52:58.613Z,13.34
2023-04-25T13:55:27.418Z,13.40
2023-04-25T13:57:55.985Z,13.43
2023-04-25T14:00:24.362Z,13.35
2023-04-25T14:02:52.668Z,13.27
2023-04-25T14:05:21.032Z,13.22
2023-04-25T14:07:49.190Z,13.22
2023-04-25T14:10:17.254Z,13.38
2023-04-25T14:12:45.324Z,13.46
2023-04-25T14:15:13.702Z,13.49
2023-04-25T14:17:41.962Z,13.44
2023-04-25T14:20:10.367Z,13.41
2023-04-25T14:22:42.623Z,13.30
2023-04-25T14:25:11.412Z,13.16
2023-04-25T14:27:39.475Z,13.08
2023-04-25T14:30:10.241Z,13.05
2023-04-25T14:32:39.122Z,13.06
2023-04-25T14:35:08.380Z,13.04
2023-04-25T14:37:36.572Z,13.05
2023-04-25T14:40:06.386Z,13.08
2023-04-25T14:42:35.374Z,13.11
2023-04-25T14:45:10.648Z,13.15
2023-04-25T14:47:39.029Z,13.14
2023-04-25T14:50:08.383Z,13.17
2023-04-25T14:52:36.764Z,13.26
2023-04-25T14:55:08.626Z,13.38
2023-04-25T14:57:36.901Z,13.53
2023-04-25T15:00:08.164Z,13.78
2023-04-25T15:02:37.741Z,14.17
2023-04-25T15:05:06.951Z,14.65
2023-04-25T15:07:35.737Z,15.03
2023-04-25T15:10:04.320Z,15.53
2023-04-25T15:12:32.798Z,15.90
2023-04-25T15:15:01.178Z,16.01
2023-04-25T15:17:32.268Z,16.04
2023-04-25T15:20:00.898Z,16.01
2023-04-25T15:22:29.380Z,15.91
2023-04-25T15:24:58.064Z,15.74
2023-04-25T15:27:28.283Z,15.57
2023-04-25T15:29:56.455Z,15.30
2023-04-25T15:32:24.847Z,15.11
2023-04-25T15:34:53.309Z,14.93
2023-04-25T15:37:21.483Z,14.71
2023-04-25T15:40:07.680Z,14.50
2023-04-25T15:42:56.043Z,14.28
2023-04-25T15:45:28.287Z,14.01
2023-04-25T15:47:57.461Z,13.68
2023-04-25T15:50:25.963Z,13.01
2023-04-25T15:52:54.343Z,12.71
2023-04-25T15:55:22.924Z,12.95
2023-04-25T15:57:51.636Z,13.24
2023-04-25T16:00:22.589Z,13.50
2023-04-25T16:02:51.143Z,13.64
2023-04-25T16:05:19.767Z,13.80
2023-04-25T16:07:48.601Z,13.85
2023-04-25T16:10:21.760Z,13.86
2023-04-25T16:12:50.778Z,13.90
2023-04-25T16:15:18.853Z,13.81
2023-04-25T16:17:47.140Z,13.26
2023-04-25T16:20:15.407Z,12.64
2023-04-25T16:22:44.510Z,12.14
2023-04-25T16:25:13.177Z,11.73
2023-04-25T16:27:41.456Z,11.50
2023-04-25T16:30:11.178Z,11.92
2023-04-25T16:32:41.374Z,12.48
2023-04-25T16:35:10.787Z,12.95
2023-04-25T16:37:38.852Z,13.33
2023-04-25T16:40:10.633Z,13.60
2023-04-25T16:42:38.791Z,13.82
2023-04-25T16:45:07.943Z,14.06
2023-04-25T16:47:36.712Z,14.13
2023-04-25T16:50:06.134Z,13.62
2023-04-25T16:52:34.235Z,13.06
2023-04-25T16:55:02.403Z,12.61
2023-04-25T16:57:30.688Z,12.22
2023-04-25T16:59:58.849Z,11.84
2023-04-25T17:02:27.722Z,11.54
2023-04-25T17:04:56.333Z,11.40
2023-04-25T17:07:24.902Z,11.84
2023-04-25T17:09:53.076Z,12.30
2023-04-25T17:12:21.909Z,12.65
2023-04-25T17:14:50.339Z,12.94
2023-04-25T17:17:19.100Z,13.09
2023-04-25T17:19:47.455Z,12.67
2023-04-25T17:22:15.867Z,12.18
2023-04-25T17:24:44.666Z,11.69
2023-04-25T17:27:12.739Z,11.30
2023-04-25T17:29:41.525Z,10.99
2023-04-25T17:32:10.363Z,10.73
2023-04-25T17:34:40.188Z,10.51
2023-04-25T17:37:11.881Z,10.29
2023-04-25T17:39:40.056Z,10.08
2023-04-25T17:42:08.633Z,9.90
2023-04-25T17:44:36.807Z,9.74
2023-04-25T17:47:06.675Z,9.59
2023-04-25T17:49:36.837Z,9.45
2023-04-25T17:52:06.648Z,9.35
2023-04-25T17:54:35.129Z,9.25
2023-04-25T17:57:04.646Z,9.16
2023-04-25T17:59:33.518Z,9.08
2023-04-25T18:02:01.959Z,9.02
2023-04-25T18:04:30.524Z,8.96
2023-04-25T18:06:59.163Z,8.92
2023-04-25T18:09:27.891Z,8.88
2023-04-25T18:11:56.664Z,8.83
2023-04-25T18:14:25.730Z,8.79
2023-04-25T18:16:54.724Z,8.76
2023-04-25T18:19:23.217Z,8.71
2023-04-25T18:21:55.379Z,8.66
2023-04-25T18:24:27.153Z,8.59
2023-04-25T18:26:56.215Z,8.51
2023-04-25T18:29:32.852Z,8.42
2023-04-25T18:32:02.603Z,8.32
2023-04-25T18:34:31.584Z,8.22
2023-04-25T18:36:59.963Z,8.13
2023-04-25T18:39:28.223Z,8.04
2023-04-25T18:42:04.337Z,7.94
2023-04-25T18:44:40.316Z,7.84
2023-04-25T18:47:10.333Z,7.74
2023-04-25T18:49:38.815Z,7.67
2023-04-25T18:52:10.835Z,7.59
2023-04-25T18:54:39.391Z,7.52
2023-04-25T18:57:07.578Z,7.46
2023-04-25T18:59:36.271Z,7.40
2023-04-25T19:02:05.581Z,7.35
2023-04-25T19:04:34.605Z,7.30
2023-04-25T19:07:04.443Z,7.25
2023-04-25T19:09:32.758Z,7.19
2023-04-25T19:12:02.028Z,7.16
2023-04-25T19:14:32.456Z,7.10
2023-04-25T19:17:00.934Z,7.07
2023-04-25T19:19:29.506Z,7.03
2023-04-25T19:21:58.701Z,6.99
2023-04-25T19:24:27.319Z,6.95
2023-04-25T19:26:55.658Z,6.90
2023-04-25T19:29:23.838Z,6.87
2023-04-25T19:31:52.025Z,6.84
2023-04-25T19:34:20.180Z,6.81
2023-04-25T19:36:49.087Z,6.79
2023-04-25T19:39:17.241Z,6.76
2023-04-25T19:41:45.620Z,6.76
2023-04-25T19:44:13.787Z,6.74
2023-04-25T19:46:43.384Z,6.73
2023-04-25T19:49:11.670Z,6.70
2023-04-25T19:51:39.743Z,6.67
2023-04-25T19:54:08.025Z,6.66
2023-04-25T19:56:36.294Z,6.64
2023-04-25T19:59:04.460Z,6.72
2023-04-25T20:01:32.554Z,7.33
2023-04-25T20:04:00.704Z,8.02
2023-04-25T20:06:29.383Z,8.55
2023-04-25T20:08:57.789Z,8.90
2023-04-25T20:11:28.913Z,9.00
2023-04-25T20:13:57.192Z,8.69
2023-04-25T20:16:25.416Z,8.31
2023-04-25T20:18:54.353Z,8.01
2023-04-25T20:21:23.492Z,7.74
2023-04-25T20:23:51.714Z,7.52
2023-04-25T20:26:22.045Z,7.35
2023-04-25T20:28:51.282Z,7.18
2023-04-25T20:31:19.985Z,7.02
2023-04-25T20:33:49.211Z,6.91
2023-04-25T20:36:17.521Z,6.81
2023-04-25T20:38:46.078Z,6.71
2023-04-25T20:41:14.245Z,6.63
2023-04-25T20:43:42.532Z,6.54
2023-04-25T20:46:11.455Z,6.48
2023-04-25T20:48:39.693Z,6.41
2023-04-25T20:51:08.060Z,6.47
2023-04-25T20:53:36.345Z,7.08
2023-04-25T20:56:06.533Z,7.76
2023-04-25T20:58:34.844Z,8.29
2023-04-25T21:01:04.425Z,8.69
2023-04-25T21:03:34.078Z,9.04
2023-04-25T21:06:02.321Z,9.20
2023-04-25T21:08:30.601Z,8.78
2023-04-25T21:10:59.378Z,8.28
2023-04-25T21:13:29.133Z,7.90
2023-04-25T21:15:58.007Z,7.60
2023-04-25T21:18:26.563Z,7.32
2023-04-25T21:20:54.744Z,7.10
2023-04-25T21:23:23.008Z,6.90
2023-04-25T21:25:54.571Z,6.72
2023-04-25T21:28:23.654Z,6.55
2023-04-25T21:30:52.671Z,6.53
2023-04-25T21:33:21.035Z,7.06
2023-04-25T21:35:49.195Z,7.61
2023-04-25T21:38:17.474Z,8.02
2023-04-25T21:40:46.161Z,8.32
2023-04-25T21:43:14.332Z,8.58
2023-04-25T21:46:05.742Z,8.79
2023-04-25T21:48:30.841Z,8.82
2023-04-25T21:50:59.025Z,8.35
2023-04-25T21:53:27.408Z,7.88
2023-04-25T21:55:55.565Z,7.49
2023-04-25T21:58:23.948Z,7.16
2023-04-25T22:00:52.215Z,6.90
2023-04-25T22:03:20.664Z,6.69
2023-04-25T22:05:48.964Z,6.51
2023-04-25T22:08:17.546Z,6.37
2023-04-25T22:10:46.451Z,6.27
2023-04-25T22:13:15.752Z,6.30
2023-04-25T22:15:43.960Z,6.87
2023-04-25T22:18:13.347Z,7.52
2023-04-25T22:20:41.689Z,8.08
2023-04-25T22:23:09.760Z,8.50
2023-04-25T22:25:38.035Z,8.73
2023-04-25T22:28:06.098Z,8.39
2023-04-25T22:30:35.691Z,7.98
2023-04-25T22:33:04.040Z,7.61
2023-04-25T22:35:32.460Z,7.31
2023-04-25T22:38:00.641Z,7.07
2023-04-25T22:40:28.708Z,6.86
2023-04-25T22:42:58.000Z,6.66
2023-04-25T22:45:26.170Z,6.49
2023-04-25T22:47:54.517Z,6.34
2023-04-25T22:50:23.024Z,6.18
2023-04-25T22:52:51.096Z,6.15
2023-04-25T22:55:19.168Z,6.64
2023-04-25T22:57:47.545Z,7.19
2023-04-25T23:00:20.177Z,7.64
2023-04-25T23:02:49.850Z,8.05
2023-04-25T23:05:18.737Z,8.34
2023-04-25T23:07:47.506Z,8.50
2023-04-25T23:10:15.784Z,8.12
2023-04-25T23:12:44.168Z,7.63
2023-04-25T23:15:13.774Z,7.21
2023-04-25T23:17:42.558Z,6.87
2023-04-25T23:20:12.170Z,6.58
2023-04-25T23:22:40.798Z,6.33
2023-04-25T23:25:10.016Z,6.11
2023-04-25T23:27:38.310Z,5.92
2023-04-25T23:30:07.320Z,5.88
2023-04-25T23:32:35.822Z,6.39
2023-04-25T23:35:05.183Z,6.94
2023-04-25T23:37:34.796Z,7.39
2023-04-25T23:40:13.100Z,7.76
2023-04-25T23:42:42.502Z,8.06
2023-04-25T23:45:11.299Z,8.32
2023-04-25T23:47:39.490Z,8.44
2023-04-25T23:50:08.380Z,8.02
2023-04-25T23:52:36.523Z,7.47
2023-04-25T23:55:05.653Z,7.05
2023-04-25T23:57:34.115Z,6.70
